This is the latest recevied weather packets stored in our database for station/object K3RUP-1. If no packets are shown the sender has not sent any weather packets the latest 1 day(s).
| Time | Temp. | Humidity | Pressure | Rain* | Wind** | Luminosity | Snow |
|---|---|---|---|---|---|---|---|
| 1836274663 | 20.56° C | 94% | 1017.3 hPa | 0 mm | 0 m/s | 0 W/m² | - |
| 1836274516 | 21.11° C | 93% | 1017.3 hPa | 0 mm | 0 m/s | 0 W/m² | - |
| 1836274361 | 20.56° C | 94% | 1017.4 hPa | 0 mm | 0 m/s | 0 W/m² | - |
| 1836274214 | 20.56° C | 94% | 1017.5 hPa | 0 mm | 0 m/s | 0 W/m² | - |
| 1836274059 | 20.56° C | 93% | 1017.4 hPa | 0 mm | 0 m/s | 0 W/m² | - |
| 1778054193 | 19.44° C | 76% | 1009.3 hPa | 0 mm | 0 m/s | 0 W/m² | - |
| 1778053889 | 19.44° C | 75% | 1009.3 hPa | 0 mm | 0 m/s | 0 W/m² | - |
| 1778053587 | 19.44° C | 75% | 1009.2 hPa | 0 mm | 0 m/s | 0 W/m² | - |
| 1778053284 | 19.44° C | 75% | 1009.5 hPa | 0 mm | 0 m/s | 0 W/m² | - |
| 1778052982 | 20° C | 74% | 1009.5 hPa | 0 mm | 0 m/s | 0 W/m² | - |
| 1778052679 | 20° C | 74% | 1009.4 hPa | 0 mm | 0 m/s | 0 W/m² | - |
| 1778052375 | 20° C | 74% | 1009.3 hPa | 0 mm | 0 m/s | 0 W/m² | - |
| 1778052074 | 20° C | 74% | 1009.6 hPa | 0 mm | 0 m/s | 0 W/m² | - |
| 1778051771 | 20° C | 73% | 1009.4 hPa | 0 mm | 0 m/s | 0 W/m² | - |
| 1778051468 | 20° C | 74% | 1009.4 hPa | 0 mm | 0 m/s | 0 W/m² | - |
| 1778051165 | 20° C | 74% | 1009.6 hPa | 0 mm | 0 m/s | 0 W/m² | - |
| 1778050862 | 19.44° C | 74% | 1009.7 hPa | 0 mm | 0 m/s | 0 W/m² | - |
| 1778050561 | 19.44° C | 74% | 1009.6 hPa | 0 mm | 0 m/s | 0 W/m² | - |
| 1778050257 | 19.44° C | 74% | 1009.5 hPa | 0 mm | 0 m/s | 0 W/m² | - |
| 1778049954 | 19.44° C | 74% | 1009.5 hPa | 0 mm | 0 m/s | 0 W/m² | - |
| 1778049649 | 19.44° C | 74% | 1009.6 hPa | 0 mm | 0 m/s | 0 W/m² | - |
| 1778049347 | 19.44° C | 74% | 1009.6 hPa | 0 mm | 0 m/s | 0 W/m² | - |
| 1778049044 | 19.44° C | 74% | 1009.6 hPa | 0 mm | 0 m/s | 0 W/m² | - |
| 1778048743 | 19.44° C | 73% | 1009.4 hPa | 0 mm | 0 m/s | 0 W/m² | - |
| 1778048439 | 19.44° C | 73% | 1009.6 hPa | 0 mm | 0 m/s | 0 W/m² | - |
* Rain latest hour (hover to see other rain measurements)
** Current wind speed in m/s (hover to see current wind gust speed)